Time;durP1;ratioP1;P1;durP2;ratioP2;P2;SDS_P1;SDS_P2;PMS_P1;PMS_P2;Temp;Humidity;BMP_temperature;BMP_pressure;BME280_temperature;BME280_humidity;BME280_pressure;Samples;Min_cycle;Max_cycle;Signal;HPM_P1;HPM_P2
2023/08/27 00:00:14;;;;;;;6.07;2.85;;;18.30;75.60;;;;;;5035129;28;20029;-66
2023/08/27 00:02:40;;;;;;;6.90;3.50;;;18.20;75.60;;;;;;5030784;28;20025;-66
2023/08/27 00:05:07;;;;;;;7.60;3.45;;;18.20;75.70;;;;;;5051243;28;20104;-66
2023/08/27 00:07:34;;;;;;;9.05;3.25;;;18.30;75.80;;;;;;5032998;28;20033;-66
2023/08/27 00:10:01;;;;;;;8.70;3.35;;;18.30;75.80;;;;;;5051098;28;20030;-66
2023/08/27 00:12:27;;;;;;;6.43;3.38;;;18.30;75.80;;;;;;5032777;28;20376;-66
2023/08/27 00:14:53;;;;;;;7.35;3.55;;;18.30;75.90;;;;;;5035215;28;20130;-66
2023/08/27 00:17:19;;;;;;;6.28;3.22;;;18.30;75.90;;;;;;5033360;28;20459;-66
2023/08/27 00:19:45;;;;;;;5.57;2.92;;;18.30;76.00;;;;;;5033606;28;20123;-67
2023/08/27 00:22:11;;;;;;;5.68;2.63;;;18.30;75.90;;;;;;5031275;28;20057;-66
2023/08/27 00:24:38;;;;;;;6.47;2.70;;;18.40;75.90;;;;;;5032837;28;20114;-66
2023/08/27 00:27:05;;;;;;;6.95;2.88;;;18.40;75.70;;;;;;5028420;28;20084;-66
2023/08/27 00:29:32;;;;;;;4.93;2.40;;;18.40;75.60;;;;;;5057420;28;20128;-66
2023/08/27 00:31:58;;;;;;;5.55;2.80;;;18.40;75.50;;;;;;5025759;28;20033;-66
2023/08/27 00:34:34;;;;;;;5.32;2.40;;;18.40;75.30;;;;;;5033053;28;20339;-66
2023/08/27 00:37:03;;;;;;;4.53;2.28;;;18.40;75.20;;;;;;5034022;28;20037;-66
2023/08/27 00:39:29;;;;;;;4.43;2.33;;;18.40;75.20;;;;;;5030227;28;20387;-66
2023/08/27 00:41:55;;;;;;;5.15;2.35;;;18.30;75.10;;;;;;5044023;28;20022;-66
2023/08/27 00:44:21;;;;;;;5.20;2.05;;;18.30;75.10;;;;;;5039587;28;20017;-66
2023/08/27 00:46:51;;;;;;;3.90;2.10;;;18.30;74.90;;;;;;5033760;28;20336;-66
2023/08/27 00:49:17;;;;;;;5.38;2.40;;;18.30;74.60;;;;;;5024878;28;20049;-68
2023/08/27 00:51:47;;;;;;;5.63;2.10;;;18.30;74.50;;;;;;5034450;28;20049;-68
2023/08/27 00:54:14;;;;;;;6.22;2.20;;;18.30;74.50;;;;;;5034153;28;20025;-68
2023/08/27 00:56:44;;;;;;;5.25;1.90;;;18.30;74.40;;;;;;5033798;28;20033;-68
2023/08/27 00:59:11;;;;;;;6.18;2.30;;;18.30;74.40;;;;;;5025597;28;20032;-69
2023/08/27 01:01:39;;;;;;;4.13;2.00;;;18.30;74.30;;;;;;5016074;28;20026;-68
2023/08/27 01:04:05;;;;;;;5.03;2.22;;;18.30;74.40;;;;;;5028960;28;20454;-68
2023/08/27 01:06:31;;;;;;;4.15;2.05;;;18.30;74.40;;;;;;5027151;28;20035;-68
2023/08/27 01:09:06;;;;;;;5.13;2.22;;;18.30;74.30;;;;;;5035760;28;20100;-68
2023/08/27 01:12:09;;;;;;;5.38;2.42;;;18.30;74.10;;;;;;5033850;28;20072;-66
2023/08/27 01:14:36;;;;;;;4.47;1.98;;;18.30;73.80;;;;;;5034362;28;20033;-66
2023/08/27 01:17:07;;;;;;;6.28;2.20;;;18.30;73.70;;;;;;5017309;28;20029;-66
2023/08/27 01:19:34;;;;;;;4.43;2.13;;;18.30;73.60;;;;;;5033285;28;20033;-66
2023/08/27 01:21:59;;;;;;;5.28;2.13;;;18.30;73.60;;;;;;5046902;28;20076;-66
2023/08/27 01:24:25;;;;;;;6.38;2.42;;;18.30;73.60;;;;;;5032617;28;20025;-66
2023/08/27 01:26:59;;;;;;;6.38;2.33;;;18.30;73.60;;;;;;4997590;28;20014;-66
2023/08/27 01:29:48;;;;;;;4.90;2.10;;;18.30;73.60;;;;;;5054141;28;20429;-66
2023/08/27 01:32:29;;;;;;;4.60;2.20;;;18.30;73.60;;;;;;5032772;28;20035;-66
2023/08/27 01:34:56;;;;;;;4.25;1.77;;;18.30;73.70;;;;;;5023830;28;20431;-68
2023/08/27 01:37:22;;;;;;;5.15;2.50;;;18.20;73.80;;;;;;5022148;28;20363;-66
2023/08/27 01:39:59;;;;;;;4.28;1.95;;;18.20;73.80;;;;;;5031396;28;20057;-66
2023/08/27 01:42:25;;;;;;;4.32;2.00;;;18.20;73.80;;;;;;5032005;28;20017;-66
2023/08/27 01:44:50;;;;;;;4.90;2.08;;;18.20;74.00;;;;;;5036505;28;20343;-66
2023/08/27 01:47:16;;;;;;;5.55;2.15;;;18.20;74.00;;;;;;5026163;28;20032;-66
2023/08/27 01:49:42;;;;;;;5.38;2.38;;;18.20;74.10;;;;;;5031002;28;20458;-66
2023/08/27 01:52:08;;;;;;;4.20;2.15;;;18.20;74.70;;;;;;5042228;28;20116;-66
2023/08/27 01:54:34;;;;;;;4.47;2.05;;;18.20;74.00;;;;;;5029561;28;20048;-66
2023/08/27 01:56:59;;;;;;;4.53;2.30;;;18.20;74.10;;;;;;5032878;28;20022;-66
2023/08/27 01:59:25;;;;;;;4.30;2.10;;;18.20;74.10;;;;;;5029166;28;20454;-66
2023/08/27 02:01:51;;;;;;;4.65;2.15;;;18.20;74.80;;;;;;5019195;28;20032;-66
2023/08/27 02:04:17;;;;;;;4.45;2.03;;;18.20;74.30;;;;;;5031915;28;20028;-66
2023/08/27 02:06:44;;;;;;;4.13;2.08;;;18.20;74.30;;;;;;5032715;28;20034;-66
2023/08/27 02:09:11;;;;;;;4.72;2.10;;;18.20;74.50;;;;;;5027409;28;20041;-66
2023/08/27 02:11:37;;;;;;;5.05;2.10;;;18.20;74.50;;;;;;5015520;28;20486;-66
2023/08/27 02:14:04;;;;;;;5.60;2.35;;;18.20;74.50;;;;;;5021646;28;20087;-66
2023/08/27 02:16:30;;;;;;;5.07;2.33;;;18.20;74.60;;;;;;5033238;28;20132;-66
2023/08/27 02:18:55;;;;;;;4.57;2.10;;;18.20;74.60;;;;;;5051068;28;20022;-66
2023/08/27 02:21:21;;;;;;;4.93;2.30;;;18.20;74.70;;;;;;5036157;28;20504;-66
2023/08/27 02:23:47;;;;;;;5.95;2.58;;;18.10;74.60;;;;;;5052872;28;20077;-66
2023/08/27 02:26:12;;;;;;;5.07;2.55;;;18.10;74.60;;;;;;5035309;28;20033;-66
2023/08/27 02:28:38;;;;;;;5.75;2.40;;;18.10;74.60;;;;;;5048735;28;20044;-66
2023/08/27 02:31:05;;;;;;;4.38;2.00;;;18.10;74.50;;;;;;5036625;28;20116;-66
2023/08/27 02:33:31;;;;;;;6.75;2.70;;;18.10;74.60;;;;;;5069390;28;20053;-66
2023/08/27 02:35:58;;;;;;;4.13;2.10;;;18.10;74.60;;;;;;5030892;28;20112;-66
2023/08/27 02:38:24;;;;;;;4.60;2.22;;;18.10;74.60;;;;;;5047376;28;20116;-66
2023/08/27 02:40:50;;;;;;;4.70;2.15;;;18.10;74.60;;;;;;5028923;28;20465;-66
2023/08/27 02:43:17;;;;;;;5.57;2.28;;;18.00;74.60;;;;;;5036111;28;20429;-66
2023/08/27 02:45:45;;;;;;;4.72;2.15;;;18.10;74.80;;;;;;5034245;28;20036;-66
2023/08/27 02:48:12;;;;;;;6.57;2.38;;;18.00;74.80;;;;;;5019646;28;20021;-66
2023/08/27 02:50:38;;;;;;;4.60;2.17;;;18.00;74.70;;;;;;5029220;28;20490;-66
2023/08/27 02:53:04;;;;;;;5.40;2.22;;;18.00;74.80;;;;;;5057385;28;20057;-66
2023/08/27 02:55:31;;;;;;;6.22;2.50;;;18.00;74.90;;;;;;5024798;28;20451;-66
2023/08/27 02:57:58;;;;;;;5.38;2.58;;;17.90;74.90;;;;;;5015456;28;20462;-66
2023/08/27 03:00:24;;;;;;;5.03;2.40;;;17.90;75.00;;;;;;5027648;28;20026;-66
2023/08/27 03:02:50;;;;;;;5.03;2.25;;;17.90;75.10;;;;;;5033284;28;20028;-66
2023/08/27 03:05:17;;;;;;;4.85;2.40;;;17.90;75.10;;;;;;5034855;28;20021;-66
2023/08/27 03:07:43;;;;;;;5.28;2.53;;;17.90;75.20;;;;;;5035617;28;20045;-66
2023/08/27 03:10:09;;;;;;;5.13;2.30;;;17.90;75.20;;;;;;5015381;28;20025;-66
2023/08/27 03:12:35;;;;;;;4.53;2.22;;;17.90;75.40;;;;;;5022354;28;20086;-66
2023/08/27 03:15:02;;;;;;;4.65;2.08;;;17.90;75.50;;;;;;5067293;28;20506;-66
2023/08/27 03:17:27;;;;;;;5.30;2.15;;;17.90;75.50;;;;;;5035510;28;20044;-66
2023/08/27 03:19:53;;;;;;;4.97;2.35;;;17.90;75.50;;;;;;5027298;28;20022;-66
2023/08/27 03:22:19;;;;;;;5.07;2.47;;;17.90;75.50;;;;;;5017106;28;20014;-66
2023/08/27 03:24:46;;;;;;;4.97;2.33;;;17.90;75.50;;;;;;5033432;28;20026;-66
2023/08/27 03:27:12;;;;;;;5.60;2.05;;;18.00;75.60;;;;;;5041194;28;20458;-66
2023/08/27 03:29:39;;;;;;;4.65;2.05;;;18.00;75.60;;;;;;5010182;28;20021;-66
2023/08/27 03:32:06;;;;;;;5.05;2.03;;;18.00;75.30;;;;;;5056258;28;20454;-66
2023/08/27 03:34:32;;;;;;;4.28;1.92;;;18.00;75.20;;;;;;5020343;28;20032;-66
2023/08/27 03:36:59;;;;;;;5.25;2.20;;;18.10;75.00;;;;;;5017180;28;20025;-66
2023/08/27 03:39:24;;;;;;;5.03;2.08;;;18.00;74.80;;;;;;5017226;28;20037;-66
2023/08/27 03:41:51;;;;;;;4.72;1.88;;;18.10;74.80;;;;;;5032144;28;20033;-66
2023/08/27 03:44:16;;;;;;;4.55;1.90;;;18.10;74.70;;;;;;5017517;28;20537;-66
2023/08/27 03:46:42;;;;;;;6.13;2.08;;;18.10;74.70;;;;;;5034971;28;20024;-66
2023/08/27 03:49:08;;;;;;;4.30;2.03;;;18.10;74.90;;;;;;5033797;28;20474;-66
2023/08/27 03:51:34;;;;;;;5.70;2.10;;;18.00;74.90;;;;;;5043058;28;20116;-66
2023/08/27 03:54:00;;;;;;;5.47;1.95;;;18.10;75.20;;;;;;5025637;28;20029;-66
2023/08/27 03:56:26;;;;;;;6.30;2.08;;;18.00;75.40;;;;;;5032341;28;20029;-66
2023/08/27 03:58:53;;;;;;;4.40;2.08;;;18.00;75.60;;;;;;5020882;28;20030;-66
2023/08/27 04:01:19;;;;;;;5.90;2.30;;;17.90;75.80;;;;;;5021331;28;20026;-66
2023/08/27 04:03:45;;;;;;;6.22;2.50;;;17.90;76.00;;;;;;5013834;28;20481;-66
2023/08/27 04:06:11;;;;;;;6.65;2.47;;;17.90;76.10;;;;;;5022152;28;20040;-66
2023/08/27 04:08:37;;;;;;;5.13;2.38;;;17.90;76.20;;;;;;5003110;28;20057;-66
2023/08/27 04:11:04;;;;;;;6.32;2.58;;;17.90;76.20;;;;;;5015282;28;20371;-66
2023/08/27 04:13:31;;;;;;;5.07;2.30;;;17.80;76.40;;;;;;5029008;28;20045;-66
2023/08/27 04:16:05;;;;;;;6.32;2.40;;;17.80;76.60;;;;;;5013845;28;20030;-66
2023/08/27 04:18:32;;;;;;;6.38;2.40;;;17.80;76.70;;;;;;5020439;28;20451;-66
2023/08/27 04:20:58;;;;;;;7.13;2.30;;;17.80;76.80;;;;;;5015597;28;20509;-66
2023/08/27 04:23:25;;;;;;;6.50;2.55;;;17.80;77.00;;;;;;5021002;28;20109;-66
2023/08/27 04:25:52;;;;;;;5.97;2.63;;;17.70;77.10;;;;;;5012887;28;20112;-66
2023/08/27 04:28:18;;;;;;;7.13;3.17;;;17.70;77.30;;;;;;5014490;28;20072;-66
2023/08/27 04:30:47;;;;;;;7.60;2.67;;;17.70;77.60;;;;;;5022202;28;20164;-66
2023/08/27 04:33:13;;;;;;;6.65;3.08;;;17.60;77.60;;;;;;5024715;28;20100;-66
2023/08/27 04:35:39;;;;;;;7.80;2.92;;;17.60;77.70;;;;;;4999096;28;20033;-66
2023/08/27 04:38:06;;;;;;;8.68;2.97;;;17.70;77.90;;;;;;5017863;28;20104;-66
2023/08/27 04:40:32;;;;;;;6.80;2.92;;;17.70;77.90;;;;;;5018948;28;20040;-66
2023/08/27 04:42:58;;;;;;;6.07;2.70;;;17.70;77.90;;;;;;5049813;28;20064;-66
2023/08/27 04:45:24;;;;;;;7.03;2.90;;;17.70;77.90;;;;;;5015417;28;20022;-65
2023/08/27 04:47:50;;;;;;;6.35;2.78;;;17.70;78.00;;;;;;5028752;28;20468;-65
2023/08/27 04:50:16;;;;;;;5.93;2.75;;;17.70;77.90;;;;;;5024188;28;20116;-65
2023/08/27 04:52:42;;;;;;;7.53;2.83;;;17.70;77.90;;;;;;5021269;28;20034;-65
2023/08/27 04:55:08;;;;;;;8.52;2.97;;;17.70;77.90;;;;;;5021840;28;20029;-65
2023/08/27 04:57:35;;;;;;;7.78;2.70;;;17.70;77.90;;;;;;5002169;28;20033;-65
2023/08/27 05:00:13;;;;;;;4.85;2.10;;;17.70;77.90;;;;;;5024044;28;20410;-65
2023/08/27 05:02:39;;;;;;;6.60;2.50;;;17.70;77.80;;;;;;5018750;28;20110;-64
2023/08/27 05:05:05;;;;;;;6.28;2.40;;;17.70;77.90;;;;;;5013921;28;20107;-65
2023/08/27 05:07:31;;;;;;;5.55;2.55;;;17.70;77.80;;;;;;5021290;28;20092;-65
2023/08/27 05:09:57;;;;;;;5.60;2.30;;;17.70;77.70;;;;;;5045613;28;20359;-65
2023/08/27 05:12:23;;;;;;;5.03;1.95;;;17.70;77.80;;;;;;5020599;28;20045;-65
2023/08/27 05:14:48;;;;;;;6.72;2.35;;;17.70;77.80;;;;;;5013322;28;20038;-65
2023/08/27 05:17:15;;;;;;;5.28;2.50;;;17.70;77.70;;;;;;5056069;28;20474;-65
2023/08/27 05:19:41;;;;;;;6.15;2.38;;;17.70;77.80;;;;;;5019758;28;20343;-65
2023/08/27 05:22:07;;;;;;;5.97;2.30;;;17.70;77.70;;;;;;5007612;28;20022;-65
2023/08/27 05:24:34;;;;;;;5.68;2.20;;;17.70;77.70;;;;;;5015065;28;20367;-64
2023/08/27 05:27:00;;;;;;;6.60;2.35;;;17.70;77.70;;;;;;5026212;28;20018;-65
2023/08/27 05:29:26;;;;;;;6.72;2.20;;;17.70;77.70;;;;;;5025515;28;20032;-65
2023/08/27 05:31:52;;;;;;;5.43;2.00;;;17.70;77.60;;;;;;5034893;28;20025;-65
2023/08/27 05:34:18;;;;;;;4.85;2.08;;;17.70;77.60;;;;;;5032145;28;20459;-65
2023/08/27 05:36:45;;;;;;;5.22;1.75;;;17.70;77.70;;;;;;5009101;28;20112;-65
2023/08/27 05:39:13;;;;;;;4.20;1.70;;;17.70;77.80;;;;;;5033184;28;20116;-65
2023/08/27 05:41:40;;;;;;;5.63;2.05;;;17.70;77.80;;;;;;5034427;28;20481;-65
2023/08/27 05:44:06;;;;;;;4.38;1.70;;;17.70;77.70;;;;;;5032535;28;20057;-65
2023/08/27 05:46:32;;;;;;;4.20;1.80;;;17.70;77.70;;;;;;5033626;28;20022;-65
2023/08/27 05:48:57;;;;;;;4.35;1.77;;;17.70;77.60;;;;;;5032873;28;20091;-65
2023/08/27 05:51:23;;;;;;;5.28;1.73;;;17.70;77.50;;;;;;5070681;28;20038;-65
2023/08/27 05:53:50;;;;;;;4.45;1.98;;;17.70;77.40;;;;;;5052464;28;20121;-65
2023/08/27 05:56:16;;;;;;;4.97;1.95;;;17.80;77.20;;;;;;5037127;28;20040;-65
2023/08/27 05:58:42;;;;;;;4.43;1.75;;;17.80;77.20;;;;;;5037531;28;20116;-65
2023/08/27 06:01:08;;;;;;;5.28;2.10;;;17.80;77.10;;;;;;5066188;28;20399;-65
2023/08/27 06:03:34;;;;;;;6.00;2.13;;;17.90;77.00;;;;;;5030623;28;20120;-66
2023/08/27 06:06:00;;;;;;;4.53;1.55;;;17.90;77.00;;;;;;5041333;28;20124;-65
2023/08/27 06:08:26;;;;;;;4.10;1.42;;;17.90;76.90;;;;;;5046461;28;20113;-65
2023/08/27 06:10:52;;;;;;;4.55;1.80;;;18.00;76.90;;;;;;5032115;28;20343;-66
2023/08/27 06:13:18;;;;;;;4.15;1.63;;;18.00;77.00;;;;;;5057470;28;20379;-66
2023/08/27 06:15:44;;;;;;;3.97;1.75;;;18.00;77.10;;;;;;5029034;28;20079;-66
2023/08/27 06:18:10;;;;;;;4.68;1.80;;;18.10;76.90;;;;;;5028818;28;20025;-67
2023/08/27 06:20:36;;;;;;;4.85;1.70;;;18.20;76.70;;;;;;5030755;28;20041;-65
2023/08/27 06:23:04;;;;;;;4.38;1.55;;;18.20;76.60;;;;;;5029599;28;20013;-66
2023/08/27 06:25:35;;;;;;;4.25;1.65;;;18.20;76.70;;;;;;5030552;28;20029;-67
2023/08/27 06:28:03;;;;;;;3.88;1.52;;;18.20;76.80;;;;;;5025739;28;20048;-66
2023/08/27 06:30:29;;;;;;;4.78;1.63;;;18.20;76.90;;;;;;5057566;28;20088;-66
2023/08/27 06:32:57;;;;;;;4.35;1.45;;;18.20;76.90;;;;;;5041538;28;20120;-66
2023/08/27 06:35:23;;;;;;;3.83;1.50;;;18.40;76.90;;;;;;5033322;28;20548;-66
2023/08/27 06:37:49;;;;;;;6.38;1.85;;;18.50;76.70;;;;;;5021813;28;20025;-66
2023/08/27 06:40:16;;;;;;;4.25;1.85;;;18.70;76.50;;;;;;5036344;28;20052;-65
2023/08/27 06:42:42;;;;;;;4.90;2.03;;;18.80;76.20;;;;;;5044074;28;20067;-65
2023/08/27 06:45:08;;;;;;;4.00;1.77;;;18.80;75.80;;;;;;5031791;28;20129;-66
2023/08/27 06:47:34;;;;;;;5.40;1.90;;;18.90;75.80;;;;;;5058846;28;20457;-66
2023/08/27 06:50:00;;;;;;;4.95;1.83;;;18.90;75.80;;;;;;5039971;28;20029;-66
2023/08/27 06:52:26;;;;;;;5.57;2.10;;;19.00;75.50;;;;;;5043636;28;20373;-66
2023/08/27 06:54:53;;;;;;;5.97;2.03;;;19.10;75.40;;;;;;5035174;28;20038;-66
2023/08/27 06:57:21;;;;;;;5.03;2.28;;;19.20;75.90;;;;;;5017909;28;20038;-65
2023/08/27 06:59:48;;;;;;;5.63;2.00;;;19.40;74.90;;;;;;5018733;28;20117;-66
2023/08/27 07:02:14;;;;;;;4.47;1.92;;;19.50;74.70;;;;;;5024504;28;20031;-65
2023/08/27 07:04:40;;;;;;;4.07;2.00;;;19.60;74.40;;;;;;5029498;28;20067;-65
2023/08/27 07:07:07;;;;;;;5.00;1.88;;;19.70;74.20;;;;;;5024808;28;20367;-65
2023/08/27 07:09:32;;;;;;;5.20;1.95;;;19.80;73.90;;;;;;5031621;28;20136;-65
2023/08/27 07:11:58;;;;;;;5.50;2.30;;;20.00;73.90;;;;;;5023935;28;20049;-66
2023/08/27 07:14:24;;;;;;;5.13;2.13;;;20.10;73.80;;;;;;5024466;28;20450;-65
2023/08/27 07:16:49;;;;;;;5.18;2.47;;;20.20;73.60;;;;;;5024509;28;20029;-66
2023/08/27 07:19:15;;;;;;;7.28;2.17;;;20.30;73.30;;;;;;5010191;28;20103;-65
2023/08/27 07:21:41;;;;;;;4.25;1.85;;;20.20;73.20;;;;;;5043495;28;20112;-65
2023/08/27 07:24:08;;;;;;;6.65;2.42;;;20.10;73.30;;;;;;5008411;28;20021;-66
2023/08/27 07:26:34;;;;;;;5.90;2.45;;;20.00;73.50;;;;;;5025396;28;20045;-66
2023/08/27 07:29:00;;;;;;;8.18;3.15;;;20.00;73.50;;;;;;5021795;28;20060;-66
2023/08/27 07:31:26;;;;;;;6.55;3.25;;;19.90;74.30;;;;;;5019868;28;20037;-66
2023/08/27 07:33:52;;;;;;;9.10;3.33;;;19.90;73.70;;;;;;5016830;28;20092;-66
2023/08/27 07:36:18;;;;;;;9.65;3.08;;;19.90;73.90;;;;;;5048004;28;20030;-66
2023/08/27 07:38:44;;;;;;;7.53;3.00;;;20.00;73.60;;;;;;5018752;28;20065;-66
2023/08/27 07:41:11;;;;;;;9.88;3.13;;;20.30;73.30;;;;;;5019421;28;20014;-65
2023/08/27 07:43:37;;;;;;;7.05;2.75;;;20.40;72.90;;;;;;5025041;28;20224;-66
2023/08/27 07:46:03;;;;;;;5.93;2.90;;;20.50;72.70;;;;;;5018538;28;20018;-66
2023/08/27 07:48:31;;;;;;;7.10;2.78;;;20.60;72.60;;;;;;5061393;28;20029;-65
2023/08/27 07:50:57;;;;;;;8.68;3.08;;;20.90;72.20;;;;;;5023556;28;20022;-66
2023/08/27 07:53:23;;;;;;;7.10;2.90;;;21.00;71.90;;;;;;5002870;28;20438;-66
2023/08/27 07:55:50;;;;;;;6.53;3.08;;;21.10;71.70;;;;;;5031806;28;20098;-66
2023/08/27 07:58:16;;;;;;;5.95;2.58;;;21.20;71.20;;;;;;5017943;28;20068;-67
2023/08/27 08:00:42;;;;;;;7.05;2.67;;;21.30;70.90;;;;;;5027200;28;20440;-66
2023/08/27 08:03:08;;;;;;;6.15;2.53;;;21.40;70.70;;;;;;5025778;28;20013;-67
2023/08/27 08:05:34;;;;;;;6.60;2.65;;;21.40;70.70;;;;;;5025032;28;20041;-66
2023/08/27 08:08:00;;;;;;;5.03;2.60;;;21.50;70.60;;;;;;5032451;28;20029;-67
2023/08/27 08:10:26;;;;;;;6.65;2.90;;;21.50;70.40;;;;;;5020632;28;20029;-67
2023/08/27 08:12:52;;;;;;;7.03;3.08;;;21.50;70.40;;;;;;5028332;28;20050;-67
2023/08/27 08:15:18;;;;;;;6.63;3.38;;;21.50;70.30;;;;;;5027053;28;20040;-67
2023/08/27 08:17:44;;;;;;;7.53;3.35;;;21.30;70.40;;;;;;5030469;28;20037;-67
2023/08/27 08:20:11;;;;;;;6.45;2.75;;;21.20;70.60;;;;;;5032791;28;20021;-65
2023/08/27 08:22:38;;;;;;;7.00;2.58;;;21.20;70.60;;;;;;5029416;28;20081;-65
2023/08/27 08:25:05;;;;;;;6.70;2.95;;;21.30;70.40;;;;;;5028610;28;20030;-66
2023/08/27 08:27:31;;;;;;;7.28;2.92;;;21.30;70.30;;;;;;5011643;28;20029;-66
2023/08/27 08:29:56;;;;;;;5.72;2.90;;;21.50;70.10;;;;;;5022695;28;20037;-66
2023/08/27 08:32:22;;;;;;;7.07;3.05;;;21.70;69.50;;;;;;5027439;28;20447;-66
2023/08/27 08:34:48;;;;;;;6.30;2.90;;;21.80;69.30;;;;;;5020968;28;20044;-66
2023/08/27 08:37:14;;;;;;;9.18;3.47;;;21.90;69.10;;;;;;5029078;28;20036;-66
2023/08/27 08:39:40;;;;;;;8.45;3.25;;;22.10;68.60;;;;;;5058394;28;20026;-67
2023/08/27 08:42:18;;;;;;;7.28;3.00;;;22.20;68.20;;;;;;5027645;28;20083;-67
2023/08/27 08:44:55;;;;;;;7.18;3.30;;;22.10;68.00;;;;;;5017422;28;20082;-66
2023/08/27 08:47:24;;;;;;;7.10;3.30;;;21.90;68.20;;;;;;5013959;28;20021;-67
2023/08/27 08:49:56;;;;;;;8.43;3.50;;;21.80;68.30;;;;;;5013343;28;20033;-67
2023/08/27 08:52:26;;;;;;;9.77;3.50;;;21.80;68.30;;;;;;5015700;28;20037;-67
2023/08/27 08:54:54;;;;;;;5.85;2.92;;;21.80;68.40;;;;;;5029080;28;20022;-67
2023/08/27 08:57:21;;;;;;;7.88;3.40;;;21.90;68.30;;;;;;5009712;28;20052;-67
2023/08/27 08:59:48;;;;;;;8.90;3.08;;;21.90;67.90;;;;;;5024269;28;20029;-66
2023/08/27 09:02:15;;;;;;;6.28;2.60;;;21.80;67.70;;;;;;5022631;28;20414;-67
2023/08/27 09:04:43;;;;;;;4.85;2.42;;;21.70;67.80;;;;;;5024059;28;20365;-67
2023/08/27 09:07:09;;;;;;;5.45;2.70;;;21.90;67.60;;;;;;5020419;28;20129;-67
2023/08/27 09:09:38;;;;;;;6.28;2.60;;;22.20;67.00;;;;;;5026478;28;20200;-67
2023/08/27 09:12:08;;;;;;;6.65;2.50;;;22.40;66.20;;;;;;5025800;28;20092;-67
2023/08/27 09:14:36;;;;;;;6.07;2.97;;;22.70;65.60;;;;;;5023914;28;20104;-66
2023/08/27 09:17:04;;;;;;;6.03;2.50;;;22.90;65.10;;;;;;5028933;28;20021;-67
2023/08/27 09:19:30;;;;;;;6.05;2.70;;;23.20;64.40;;;;;;5021241;28;20355;-67
2023/08/27 09:21:56;;;;;;;5.53;2.15;;;23.50;63.70;;;;;;5023405;28;20057;-67
2023/08/27 09:24:21;;;;;;;3.58;1.60;;;23.60;63.10;;;;;;5024904;28;20056;-66
2023/08/27 09:26:47;;;;;;;6.82;2.58;;;23.70;62.70;;;;;;5022685;28;20053;-67
2023/08/27 09:29:15;;;;;;;4.55;2.17;;;23.90;61.90;;;;;;5025992;28;20083;-66
2023/08/27 09:31:43;;;;;;;4.90;1.80;;;24.00;61.50;;;;;;5040624;28;20021;-66
2023/08/27 09:34:09;;;;;;;5.43;1.98;;;23.90;61.10;;;;;;5024686;28;20022;-67
2023/08/27 09:36:38;;;;;;;5.13;1.90;;;23.90;60.90;;;;;;5034456;28;20346;-67
2023/08/27 09:39:11;;;;;;;5.57;2.10;;;24.00;60.40;;;;;;5034832;28;20028;-67
2023/08/27 09:41:41;;;;;;;5.88;2.40;;;24.00;60.40;;;;;;5040055;28;20028;-67
2023/08/27 09:44:08;;;;;;;4.15;1.70;;;24.10;59.80;;;;;;5024246;28;20025;-67
2023/08/27 09:46:37;;;;;;;6.82;1.83;;;24.20;60.00;;;;;;5038494;28;20068;-66
2023/08/27 09:49:07;;;;;;;4.82;1.90;;;24.20;59.70;;;;;;5032447;28;20033;-67
2023/08/27 09:51:34;;;;;;;4.78;1.90;;;23.90;59.90;;;;;;5034909;28;20331;-67
2023/08/27 09:54:00;;;;;;;5.32;1.90;;;23.60;60.40;;;;;;5021383;28;20092;-67
2023/08/27 09:56:28;;;;;;;5.10;2.20;;;23.70;60.30;;;;;;5035567;28;20025;-67
2023/08/27 09:58:54;;;;;;;5.97;1.88;;;23.90;60.00;;;;;;5027543;28;20034;-67
2023/08/27 10:01:23;;;;;;;4.90;1.60;;;24.10;59.60;;;;;;5027870;28;20052;-66
2023/08/27 10:03:49;;;;;;;4.90;1.85;;;24.30;59.10;;;;;;5032624;28;20036;-66
2023/08/27 10:06:14;;;;;;;3.00;1.30;;;24.60;58.80;;;;;;5044654;28;20104;-66
2023/08/27 10:08:53;;;;;;;3.80;1.65;;;24.80;57.90;;;;;;5028909;28;20057;-66
2023/08/27 10:11:22;;;;;;;4.07;1.58;;;25.10;57.00;;;;;;5047551;28;20096;-67
2023/08/27 10:13:48;;;;;;;5.25;1.80;;;25.10;56.70;;;;;;5031745;28;20113;-67
2023/08/27 10:16:15;;;;;;;4.85;1.60;;;25.20;56.60;;;;;;5032722;28;20423;-67
2023/08/27 10:18:41;;;;;;;2.47;1.25;;;25.20;56.40;;;;;;5029663;28;20112;-66
2023/08/27 10:21:10;;;;;;;4.55;1.40;;;25.30;56.20;;;;;;5032841;28;20040;-66
2023/08/27 10:23:39;;;;;;;4.20;1.83;;;25.40;56.10;;;;;;5020223;28;20467;-66
2023/08/27 10:26:05;;;;;;;6.05;1.50;;;25.20;56.00;;;;;;5026185;28;20036;-67
2023/08/27 10:28:33;;;;;;;3.08;1.45;;;25.00;56.10;;;;;;5032068;28;20041;-67
2023/08/27 10:30:59;;;;;;;3.30;1.48;;;24.90;56.20;;;;;;5022222;28;20048;-67
2023/08/27 10:33:26;;;;;;;5.22;1.52;;;24.60;56.30;;;;;;5032123;28;20131;-67
2023/08/27 10:35:54;;;;;;;4.10;1.63;;;24.20;56.50;;;;;;5037862;28;20032;-66
2023/08/27 10:38:25;;;;;;;3.90;1.60;;;24.10;56.70;;;;;;5038767;28;20095;-66
2023/08/27 10:40:51;;;;;;;4.07;1.17;;;24.10;56.60;;;;;;5029871;28;20021;-66
2023/08/27 10:43:21;;;;;;;3.30;1.40;;;23.80;56.00;;;;;;5034566;28;20025;-66
2023/08/27 10:45:48;;;;;;;2.90;1.10;;;23.40;55.90;;;;;;5036264;28;20040;-66
2023/08/27 10:48:17;;;;;;;3.50;1.00;;;23.00;56.10;;;;;;5036448;28;20029;-66
2023/08/27 10:50:47;;;;;;;1.73;0.85;;;22.60;56.10;;;;;;5035258;28;20465;-66
2023/08/27 10:53:14;;;;;;;1.02;0.80;;;22.20;56.20;;;;;;5032520;28;20037;-66
2023/08/27 10:55:48;;;;;;;1.63;0.77;;;21.90;56.40;;;;;;5036918;28;20037;-66
2023/08/27 10:58:16;;;;;;;1.88;1.08;;;21.80;56.40;;;;;;5037592;28;20041;-66
2023/08/27 11:01:02;;;;;;;2.75;1.38;;;21.90;56.30;;;;;;5030770;28;20462;-67
2023/08/27 11:03:48;;;;;;;3.30;1.50;;;21.80;56.40;;;;;;5032767;28;20462;-66
2023/08/27 11:06:14;;;;;;;3.17;1.40;;;21.60;56.70;;;;;;5015942;28;20454;-66
2023/08/27 11:08:43;;;;;;;2.75;1.10;;;21.50;57.10;;;;;;5029439;28;20071;-66
2023/08/27 11:11:15;;;;;;;2.30;1.10;;;21.50;57.00;;;;;;5033994;28;20135;-66
2023/08/27 11:13:41;;;;;;;2.25;0.98;;;21.50;57.20;;;;;;5037943;28;20056;-66
2023/08/27 11:16:15;;;;;;;2.15;0.95;;;21.50;57.40;;;;;;5035965;28;20355;-66
2023/08/27 11:18:50;;;;;;;3.67;1.27;;;21.70;57.00;;;;;;5067402;28;20076;-66
2023/08/27 11:21:39;;;;;;;3.33;1.17;;;21.60;56.70;;;;;;5035901;28;20032;-66
2023/08/27 11:24:10;;;;;;;1.75;0.95;;;21.60;56.70;;;;;;5019307;28;20462;-66
2023/08/27 11:26:37;;;;;;;2.20;1.10;;;21.50;56.90;;;;;;5036590;28;20022;-66
2023/08/27 11:29:03;;;;;;;3.65;1.20;;;21.40;57.20;;;;;;5036763;28;20080;-66
2023/08/27 11:31:32;;;;;;;4.18;1.42;;;21.20;57.60;;;;;;5034972;28;20342;-66
2023/08/27 11:33:59;;;;;;;3.10;1.20;;;21.00;58.10;;;;;;5036776;28;20040;-66
2023/08/27 11:36:25;;;;;;;3.22;1.10;;;20.80;58.60;;;;;;5036032;28;20037;-66
2023/08/27 11:38:58;;;;;;;6.28;1.58;;;20.50;59.00;;;;;;5035451;28;20458;-65
2023/08/27 11:41:24;;;;;;;7.57;1.92;;;20.30;60.30;;;;;;5034388;28;20021;-66
2023/08/27 11:43:53;;;;;;;7.55;1.83;;;20.10;61.60;;;;;;5031056;28;20029;-66
2023/08/27 11:46:25;;;;;;;6.35;1.80;;;19.80;62.90;;;;;;5036931;28;20079;-66
2023/08/27 11:48:51;;;;;;;7.90;1.30;;;19.50;64.00;;;;;;5035978;28;20116;-66
2023/08/27 11:51:17;;;;;;;2.70;1.02;;;19.30;64.50;;;;;;5036127;28;20100;-65
2023/08/27 11:53:46;;;;;;;5.88;1.50;;;19.10;65.00;;;;;;5034932;28;20038;-65
2023/08/27 11:56:13;;;;;;;3.13;1.10;;;19.00;65.40;;;;;;5036710;28;20350;-65
2023/08/27 11:58:42;;;;;;;3.05;1.08;;;18.90;65.70;;;;;;5036501;28;20500;-65
2023/08/27 12:01:10;;;;;;;4.82;1.30;;;18.90;66.00;;;;;;5036130;28;20028;-65
2023/08/27 12:03:38;;;;;;;2.65;1.30;;;18.80;66.50;;;;;;5036582;28;20112;-65
2023/08/27 12:06:14;;;;;;;5.97;1.17;;;18.70;66.80;;;;;;5034246;28;20108;-65
2023/08/27 12:08:40;;;;;;;4.25;1.17;;;18.80;67.30;;;;;;5036490;28;20458;-65
2023/08/27 12:11:06;;;;;;;3.70;1.30;;;18.90;67.30;;;;;;5035236;28;20120;-65
2023/08/27 12:13:31;;;;;;;3.38;1.45;;;18.90;67.40;;;;;;5033347;28;20057;-65
2023/08/27 12:15:58;;;;;;;3.92;1.67;;;18.90;67.70;;;;;;5036285;28;20064;-65
2023/08/27 12:18:33;;;;;;;6.03;1.85;;;18.90;68.00;;;;;;5036125;28;20091;-65
2023/08/27 12:21:04;;;;;;;5.80;2.00;;;19.00;68.20;;;;;;5035196;28;20025;-65
2023/08/27 12:23:30;;;;;;;4.80;1.92;;;19.00;68.20;;;;;;5027717;28;20029;-65
2023/08/27 12:25:58;;;;;;;4.43;1.73;;;19.10;68.30;;;;;;5036243;28;20031;-65
2023/08/27 12:28:24;;;;;;;4.20;1.50;;;19.30;68.60;;;;;;5035590;28;20045;-65
2023/08/27 12:30:54;;;;;;;2.78;1.20;;;19.40;68.60;;;;;;5035167;28;20484;-66
2023/08/27 12:33:37;;;;;;;3.47;1.30;;;19.60;68.70;;;;;;5034598;28;20029;-66
2023/08/27 12:36:07;;;;;;;3.58;1.52;;;19.80;68.50;;;;;;5023017;28;20279;-66
2023/08/27 12:38:35;;;;;;;2.50;1.30;;;20.00;68.60;;;;;;5034703;28;20103;-66
2023/08/27 12:41:01;;;;;;;4.00;1.50;;;20.10;68.50;;;;;;5035404;28;20017;-66
2023/08/27 12:43:27;;;;;;;3.63;1.35;;;20.20;68.50;;;;;;5015651;28;20025;-66
2023/08/27 12:45:53;;;;;;;4.38;1.60;;;20.30;68.70;;;;;;5032785;28;20033;-65
2023/08/27 12:48:19;;;;;;;3.40;1.50;;;20.30;68.90;;;;;;5035867;28;20021;-66